Terminal Aerodrome Forecast
Issued by NWS Missoula, MT

Home | Current Version | Previous Version | Text Only | Print | Product List | Glossary On
Versions: 1 2 3 4 5 6 7 8 9 10 11 12 13 14 15 16 17
000
FTUS45 KMSO 222328
TAFMSO
TAF
KMSO 222328Z 2300/2324 31010KT P6SM VCSH SCT050 OVC080
     FM230100 31004KT P6SM SCT050
     FM231000 00000KT 5SM BR FEW001 SCT025
     FM231700 13003KT P6SM BKN050=

USA.gov is the U.S. government's official web portal to all federal, state and local government web resources and services.